x

Nantucket Sound (44020) Wave Buoy

2:50 - Wed 17th Dec 2014 All times are EST. -5 hours from GMT.

  • Sig Wave height 2.0ft
  • Swell Direction
  • Peak Period 3s
  • Average Period 3s
  • Wind
    16mph, 18mph gusts
  • Sea Temp 45°f
  • Luft Temp 44°f
  • Sea Pressure 1004.8mb
  • Nantucket Sound
  • Nantucket Sound

More Historic Weather Station data

Upgrade to MSW Pro to gain access to the past 30 days of data for over 8000 Wavebouys and Weather Stations around the globe.

Join Pro

Comparision Forecast

View Surf forecast
   
Mi 12/17 2:50 2ft 3s 3s 16 18 mph 1004.8mb 45f 44f
1:50 2ft 3s 3s 18 22 mph 1004.3mb 44f 44f
12:50 1.6ft 3s 3s 18 20 mph 1004.5mb 45f 44f
11:50 1.3ft 5s 3s 18 22 mph 1004.6mb 45f 44f
10:50 1.3ft 5s 4s 7 9 mph 1005mb 45f 46f
9:50 1.3ft 4s 4s 4 7 mph 1005.8mb 44f 47f
8:50 1.6ft 4s 4s 11
mph
1005.7mb 44f 48f
7:50 1.6ft 4s 4s 7
mph
1006.2mb 44f 47f
6:50 1.3ft 4s 4s 9 11 mph 1006.5mb 44f 48f
5:50 1ft 4s 4s 7
mph
1007.1mb 44f 47f
4:50 1ft 3s 3s 9
mph
1007.5mb 44f 48f
3:50 0.7ft  -  3s 16 18 mph 1008.4mb 44f 49f
2:50 0.7ft  -  4s 11 13 mph 1009mb 44f 48f
1:50 0.7ft  -  4s 9
mph
1010.1mb 44f 47f
12:50 1ft 5s 4s 7 9 mph 1011.4mb 44f 46f
Di 12/16 11:50 1ft 5s 4s 9
mph
1012.1mb 44f 47f
10:50 1ft 4s 4s 9
mph
1013.3mb 44f 46f
9:50 1ft 4s 4s 9 11 mph 1014.1mb 44f 46f
8:50 1ft 5s 4s 11 13 mph 1014.5mb 44f 46f
7:50 1ft 10s 4s 11
mph
1015.3mb 44f 46f
6:50 1ft 10s 4s 7 9 mph 1016.5mb 44f 45f
5:50 1ft 9s 4s 7
mph
1017.2mb 44f 46f
4:50 0.7ft  -  4s 9 11 mph 1017.6mb 44f 45f
3:50 0.7ft  -  3s 9 11 mph 1017.7mb 44f 45f
2:50 0.7ft  -  5s 9 11 mph 1017.9mb 44f 45f
1:50 0.7ft  -  5s 7
mph
1018.3mb 44f 44f
12:50 0.7ft  -  5s 7
mph
1018.9mb 44f 44f
11:50 0.7ft  -  5s 7 9 mph 1019.3mb 44f 44f
10:50 0.7ft  -  5s 9
mph
1020.3mb 44f 43f
9:50 0.7ft  -  5s 7
mph
1021.1mb 44f 43f
8:50 0.7ft  -  4s  -  mph 1020.9mb 44f 43f
7:50 1ft 6s 4s 4 7 mph 1020.7mb 44f 43f
6:50 1ft 6s 4s 7 9 mph 1020.3mb 44f 42f
5:50 1ft 10s 5s  -  2 mph 1020.3mb 44f 42f
4:50 0.7ft  -  5s 2 4 mph 1020.6mb 44f 42f
3:50 0.3ft  -  5s 4
mph
1020.4mb 44f 42f
2:50 0.3ft  -  5s 7
mph
1020.7mb 44f 42f
1:50 0.7ft  -  5s 4
mph
1020.8mb 44f 42f
12:50 0.7ft  -  5s 4 7 mph 1020.4mb 44f 42f
Mo 12/15 11:50 0.7ft  -  5s 2 4 mph 1020.1mb 44f 42f
10:50 0.7ft  -  5s 4
mph
1020.4mb 44f 42f
9:50 0.7ft  -  5s 4 7 mph 1020.3mb 44f 42f
8:50 0.7ft  -  4s 2
mph
1020.4mb 44f 42f
7:50 1ft 5s 4s 4 7 mph 1020mb 44f 41f
6:50 1ft 6s 4s 7 9 mph 1019.7mb 44f 41f
5:50 1ft 6s 5s 2 4 mph 1018.7mb 44f 41f
4:50 1ft 5s 5s 7 9 mph 1018.2mb 44f 40f
3:50 0.7ft  -  4s 7 11 mph 1017.8mb 44f 40f
2:50 0.7ft  -  4s 7 9 mph 1017.2mb 45f 40f
1:50 1ft 6s 4s 9 11 mph 1016.9mb 44f 40f
12:50 1ft 2s 3s 7 9 mph 1016.5mb 44f 39f
11:50 1ft 3s 3s 7 9 mph 1016.6mb 44f 39f
10:50 1.3ft 3s 3s 9 11 mph 1016.8mb 44f 38f
9:50 1.3ft 3s 3s 11 13 mph 1016.7mb 43f 38f
8:50 1.3ft 3s 3s 13 16 mph 1016mb 43f 37f
7:50 1.3ft 3s 3s 13 16 mph 1015.2mb 43f 37f
6:50 1.3ft 3s 3s 13 16 mph 1014.6mb 43f 37f
5:50 1.3ft 3s 3s 13 16 mph 1014.2mb 43f 37f
4:50 1.3ft 3s 3s 11 13 mph 1013.4mb 43f 37f
3:50 1.3ft 3s 3s 11 13 mph 1013.1mb 43f 38f
2:50 1.3ft 3s 3s 13 16 mph 1012.9mb 44f 37f
1:50 1.3ft 3s 3s 16 18 mph 1012.4mb 44f 37f
12:50 1.6ft 3s 3s 13 18 mph 1011.9mb 44f 37f
So 12/14 11:50 1.6ft 3s 3s 16 18 mph 1011.8mb 44f 38f
10:50 1.3ft 3s 3s 16 18 mph 1011.8mb 44f 39f
9:50 1.3ft 3s 3s 16 18 mph 1011.5mb 44f 40f
8:50 1ft 6s 3s 13 16 mph 1011.4mb 44f 41f
7:50 1.3ft 3s 3s 7 9 mph 1011.2mb 44f 42f
6:50 1ft 3s 3s 11 13 mph 1010.6mb 44f 42f
5:50 1.6ft 3s 3s 11 13 mph 1009.9mb 44f 41f
4:50 2ft 3s 3s 16 18 mph 1009.3mb 44f 41f
3:50 1.6ft 3s 3s 16 20 mph 1008.9mb 44f 41f
2:50 1.3ft 3s 3s 16 20 mph 1008.6mb 44f 41f
1:50 1.6ft 3s 3s 16
mph
1008.2mb 44f 40f
12:50 1.6ft 3s 3s 16 18 mph 1007.9mb 44f 40f
11:50 1.3ft 3s 3s 16 20 mph 1008.1mb 44f 40f
10:50 1.3ft 3s 3s 13 16 mph 1008.7mb 44f 39f
9:50 1.6ft 3s 3s 13 16 mph 1009.2mb 44f 37f
8:50 1.3ft 3s 3s 13 16 mph 1009.1mb 44f 37f
7:50 1.6ft 3s 3s 13 16 mph 1008.8mb 44f 37f
6:50 1.6ft 4s 3s 16 18 mph 1008.2mb 44f 37f
5:50 2ft 3s 3s 18 20 mph 1007.9mb 44f 37f
4:50 2ft 3s 3s 16 20 mph 1007.4mb 44f 37f
3:50 1.6ft 3s 3s 18 22 mph 1007.2mb 44f 37f
2:50 1.6ft 3s 3s 18 20 mph 1007.4mb 44f 37f
1:50 2ft 3s 3s 18 22 mph 1007.8mb 44f 37f
12:50 2ft 3s 3s 20 22 mph 1007.7mb 44f 37f
Sa 12/13 11:50 2ft 3s 3s 20 22 mph 1007.6mb 44f 38f
10:50 2ft 3s 3s 18 22 mph 1007.9mb 44f 38f
9:50 1.6ft 3s 3s 18 22 mph 1007.8mb 44f 39f
8:50 1.6ft 4s 3s 18 20 mph 1007.8mb 44f 40f